createdAt,value
2023-03-06T09:08:22.779Z,27.76
2023-03-06T09:09:23.790Z,27.74
2023-03-06T09:10:23.865Z,27.74
2023-03-06T09:11:23.998Z,27.74
2023-03-06T09:12:25.470Z,27.73
2023-03-06T09:13:23.957Z,27.76
2023-03-06T09:14:23.951Z,27.76
2023-03-06T09:15:23.937Z,27.76
2023-03-06T09:16:24.030Z,27.76
2023-03-06T09:17:24.014Z,27.77
2023-03-06T09:18:23.913Z,27.77
2023-03-06T09:19:25.489Z,27.77
2023-03-06T09:20:24.068Z,27.80
2023-03-06T09:21:23.972Z,27.83
2023-03-06T09:22:23.977Z,27.84
2023-03-06T09:23:24.485Z,27.87
2023-03-06T09:24:24.140Z,27.87
2023-03-06T09:25:23.947Z,27.88
2023-03-06T09:26:32.775Z,27.88
2023-03-06T09:27:23.992Z,27.91
2023-03-06T09:28:23.974Z,27.94
2023-03-06T09:29:23.993Z,27.94
2023-03-06T09:30:24.520Z,27.97
2023-03-06T09:31:24.489Z,27.95
2023-03-06T09:32:23.944Z,27.97
2023-03-06T09:33:23.992Z,28.01
2023-03-06T09:34:24.486Z,28.01
2023-03-06T09:35:23.960Z,28.00
2023-03-06T09:36:25.513Z,28.03
2023-03-06T09:37:24.117Z,28.04
2023-03-06T09:38:24.044Z,28.07
2023-03-06T09:39:24.079Z,28.08
2023-03-06T09:40:23.997Z,28.08
2023-03-06T09:41:24.060Z,28.09
2023-03-06T09:42:23.946Z,28.08
2023-03-06T09:43:23.936Z,28.11
2023-03-06T09:44:24.531Z,28.12
2023-03-06T09:45:24.025Z,28.14
2023-03-06T09:46:24.166Z,28.15
2023-03-06T09:47:24.021Z,28.14
2023-03-06T09:48:23.900Z,28.12
2023-03-06T09:49:24.064Z,28.09
2023-03-06T09:50:23.871Z,28.07
2023-03-06T09:51:24.496Z,28.03
2023-03-06T09:52:23.848Z,27.91
2023-03-06T09:53:23.890Z,27.77
2023-03-06T09:54:24.004Z,27.68
2023-03-06T09:55:23.827Z,27.63
2023-03-06T09:56:23.865Z,27.54
2023-03-06T09:57:23.830Z,27.50
2023-03-06T09:58:23.816Z,27.42
2023-03-06T09:59:23.820Z,27.38
2023-03-06T10:00:23.777Z,27.30
2023-03-06T10:01:23.770Z,27.22
2023-03-06T10:02:24.094Z,27.19
2023-03-06T10:03:23.807Z,27.18
2023-03-06T10:04:23.761Z,27.12
2023-03-06T10:05:24.280Z,27.08
2023-03-06T10:06:23.766Z,27.06
2023-03-06T10:07:24.508Z,27.05
2023-03-06T10:08:23.709Z,27.05
2023-03-06T10:09:23.693Z,27.02
2023-03-06T10:10:24.040Z,27.01
2023-03-06T10:11:23.685Z,26.99
2023-03-06T10:12:24.926Z,26.98
2023-03-06T10:13:23.665Z,26.94
2023-03-06T10:14:23.644Z,26.90
2023-03-06T10:15:23.639Z,26.92
2023-03-06T10:16:23.634Z,26.87
2023-03-06T10:17:23.701Z,26.82
2023-03-06T10:18:24.011Z,26.80
2023-03-06T10:19:24.040Z,26.75
2023-03-06T10:20:24.018Z,26.71
2023-03-06T10:21:23.590Z,26.67
2023-03-06T10:22:23.633Z,26.60
2023-03-06T10:23:23.599Z,26.57
2023-03-06T10:24:23.568Z,26.56
2023-03-06T10:25:24.056Z,26.51
2023-03-06T10:26:23.680Z,26.51
2023-03-06T10:27:23.571Z,26.50
2023-03-06T10:28:23.579Z,26.47
2023-03-06T10:29:23.554Z,26.48
2023-03-06T10:30:23.541Z,26.47
2023-03-06T10:31:24.143Z,26.47
2023-03-06T10:32:23.622Z,26.47
2023-03-06T10:33:23.558Z,26.46
2023-03-06T10:34:23.546Z,26.47
2023-03-06T10:35:23.582Z,26.44
2023-03-06T10:36:23.498Z,26.43
2023-03-06T10:37:23.556Z,26.43
2023-03-06T10:38:24.107Z,26.44
2023-03-06T10:39:24.011Z,26.42
2023-03-06T10:40:23.487Z,26.40
2023-03-06T10:41:23.724Z,26.40
2023-03-06T10:42:24.522Z,26.42
2023-03-06T10:43:23.521Z,26.42
2023-03-06T10:44:23.624Z,26.42
2023-03-06T10:45:24.390Z,26.42
2023-03-06T10:46:23.677Z,26.40
2023-03-06T10:47:26.593Z,26.40
2023-03-06T10:48:23.583Z,26.39
2023-03-06T10:49:23.531Z,26.37
2023-03-06T10:50:23.390Z,26.36
2023-03-06T10:51:24.054Z,26.36
2023-03-06T10:52:23.310Z,26.32
2023-03-06T10:53:23.530Z,26.32
2023-03-06T10:54:23.482Z,26.32
2023-03-06T10:55:23.277Z,26.30
2023-03-06T10:56:23.271Z,26.30
2023-03-06T10:57:23.263Z,26.27
2023-03-06T10:58:23.535Z,26.27
2023-03-06T10:59:24.030Z,26.29
2023-03-06T11:00:23.588Z,26.27
2023-03-06T11:01:23.294Z,26.26
2023-03-06T11:02:23.214Z,26.27
2023-03-06T11:03:23.556Z,26.26
2023-03-06T11:04:23.376Z,26.25
2023-03-06T11:05:23.199Z,26.22
2023-03-06T11:06:24.030Z,26.22
2023-03-06T11:07:23.534Z,26.19
2023-03-06T11:08:23.444Z,26.19
2023-03-06T11:09:23.158Z,26.19
2023-03-06T11:10:23.143Z,26.15
2023-03-06T11:11:36.756Z,26.16
2023-03-06T11:12:23.186Z,26.15
2023-03-06T11:13:23.111Z,26.12
2023-03-06T11:14:23.231Z,26.09
2023-03-06T11:15:23.108Z,26.10
2023-03-06T11:16:25.787Z,26.08
2023-03-06T11:17:23.082Z,26.06
2023-03-06T11:18:23.065Z,26.06
2023-03-06T11:19:23.533Z,26.08
2023-03-06T11:20:23.071Z,26.08
2023-03-06T11:21:23.033Z,26.10
2023-03-06T11:22:23.038Z,26.08
2023-03-06T11:23:23.059Z,26.00
2023-03-06T11:24:23.271Z,25.87
2023-03-06T11:25:23.009Z,25.85
2023-03-06T11:26:23.045Z,25.75
2023-03-06T11:27:22.988Z,25.70
2023-03-06T11:28:23.055Z,25.65
2023-03-06T11:29:23.138Z,25.57
2023-03-06T11:30:22.970Z,25.57
2023-03-06T11:31:23.176Z,25.52
2023-03-06T11:32:23.164Z,25.48
2023-03-06T11:33:23.509Z,25.47
2023-03-06T11:34:23.339Z,25.45
2023-03-06T11:35:22.965Z,25.41
2023-03-06T11:36:22.922Z,25.40
2023-03-06T11:37:23.110Z,25.36
2023-03-06T11:38:22.892Z,25.34
2023-03-06T11:39:22.880Z,25.34
2023-03-06T11:40:22.898Z,25.36
2023-03-06T11:41:22.855Z,25.36
2023-03-06T11:42:22.849Z,25.41
2023-03-06T11:43:23.044Z,25.43
2023-03-06T11:44:22.821Z,25.47
2023-03-06T11:45:22.813Z,25.50
2023-03-06T11:46:26.342Z,25.57
2023-03-06T11:47:22.804Z,25.60
2023-03-06T11:48:22.819Z,25.67
2023-03-06T11:49:22.821Z,25.70
2023-03-06T11:50:22.929Z,25.75
2023-03-06T11:51:23.042Z,25.81
2023-03-06T11:52:23.052Z,25.85
2023-03-06T11:53:22.778Z,25.89
2023-03-06T11:54:22.785Z,25.92
2023-03-06T11:55:22.750Z,25.95
2023-03-06T11:56:22.800Z,26.02
2023-03-06T11:57:23.094Z,26.06
2023-03-06T11:58:22.736Z,26.09
2023-03-06T11:59:23.045Z,26.12
2023-03-06T12:00:22.688Z,26.13
2023-03-06T12:01:22.672Z,26.17
2023-03-06T12:02:22.683Z,26.20
2023-03-06T12:03:23.052Z,26.20
2023-03-06T12:04:22.673Z,26.26
2023-03-06T12:05:22.749Z,26.27
2023-03-06T12:06:22.627Z,26.35
2023-03-06T12:07:22.632Z,26.36
2023-03-06T12:08:23.052Z,26.40
2023-03-06T12:09:23.495Z,26.42
2023-03-06T12:10:22.594Z,26.44
2023-03-06T12:11:22.591Z,26.47
2023-03-06T12:12:22.608Z,26.50
2023-03-06T12:13:22.566Z,26.56
2023-03-06T12:14:23.255Z,26.61
2023-03-06T12:15:22.545Z,26.67
2023-03-06T12:16:22.562Z,26.71
2023-03-06T12:17:22.526Z,26.75
2023-03-06T12:18:22.527Z,26.82
2023-03-06T12:19:22.569Z,26.81
2023-03-06T12:20:22.581Z,26.71
2023-03-06T12:22:22.575Z,26.63
2023-03-06T12:31:22.451Z,26.74
2023-03-06T13:09:43.076Z,27.71
2023-03-06T13:23:24.611Z,27.95
2023-03-06T13:24:21.928Z,27.98
2023-03-06T13:25:22.034Z,27.98
2023-03-06T13:26:21.926Z,28.01
2023-03-06T13:27:21.902Z,28.03
2023-03-06T13:28:21.891Z,28.05
2023-03-06T13:29:21.879Z,28.07
2023-03-06T13:30:21.873Z,28.05
2023-03-06T13:31:27.453Z,28.05
2023-03-06T13:32:22.625Z,28.09
2023-03-06T13:33:21.838Z,28.09
2023-03-06T13:34:21.836Z,28.11
2023-03-06T13:35:21.849Z,28.14
2023-03-06T13:36:21.818Z,28.16
2023-03-06T13:37:22.086Z,28.18
2023-03-06T13:38:22.662Z,28.21
2023-03-06T13:39:21.817Z,28.24
2023-03-06T13:40:22.581Z,28.25
2023-03-06T13:41:21.767Z,28.28
2023-03-06T13:42:21.759Z,28.25
2023-03-06T13:43:21.748Z,28.25
2023-03-06T13:44:21.746Z,28.28
2023-03-06T13:45:22.089Z,28.28
2023-03-06T13:46:21.784Z,28.29
2023-03-06T13:47:21.729Z,28.29
2023-03-06T13:48:41.540Z,28.29
2023-03-06T13:49:21.691Z,28.32
2023-03-06T13:50:21.693Z,28.34
2023-03-06T13:51:21.996Z,28.32
2023-03-06T13:52:21.666Z,28.35
2023-03-06T14:05:24.089Z,27.95
2023-03-06T14:13:35.090Z,27.77
2023-03-06T14:22:28.087Z,27.61
2023-03-06T14:25:24.091Z,27.60
2023-03-06T14:28:28.096Z,27.57
2023-03-06T14:36:24.151Z,27.52
2023-03-06T14:45:36.106Z,27.45
2023-03-06T14:57:21.085Z,27.35
2023-03-06T14:58:27.655Z,27.35
2023-03-06T14:59:21.181Z,27.32
2023-03-06T15:00:21.676Z,27.32
2023-03-06T15:01:21.064Z,27.33
2023-03-06T15:02:21.034Z,27.29
2023-03-06T15:03:21.023Z,27.29
2023-03-06T15:04:27.663Z,27.30
2023-03-06T15:05:21.011Z,27.32
2023-03-06T15:06:21.007Z,27.26
2023-03-06T15:07:21.190Z,27.29
2023-03-06T15:08:20.985Z,27.28
2023-03-06T15:09:21.628Z,27.26
2023-03-06T15:10:20.966Z,27.29
2023-03-06T15:12:20.981Z,27.29
2023-03-06T15:13:27.633Z,27.29
2023-03-06T15:14:23.686Z,27.26
2023-03-06T15:15:20.938Z,27.28
2023-03-06T15:16:20.950Z,27.24
2023-03-06T15:17:21.118Z,27.25
2023-03-06T15:18:20.891Z,27.24
2023-03-06T15:19:21.129Z,27.22
2023-03-06T15:20:20.871Z,27.24
2023-03-06T15:21:20.867Z,27.25
2023-03-06T15:22:21.624Z,27.26
2023-03-06T15:23:20.854Z,27.26
2023-03-06T15:24:20.842Z,27.26
2023-03-06T15:25:21.134Z,27.24
2023-03-06T15:26:20.817Z,27.24
2023-03-06T15:27:20.808Z,27.25
2023-03-06T15:28:20.798Z,27.24
2023-03-06T15:29:23.639Z,27.24
2023-03-06T15:30:21.145Z,27.22
2023-03-06T15:31:20.859Z,27.21
2023-03-06T15:32:20.783Z,27.22
2023-03-06T15:33:20.755Z,27.21
2023-03-06T15:34:20.742Z,27.19
2023-03-06T15:35:20.788Z,27.16
2023-03-06T15:36:20.731Z,27.18
2023-03-06T15:37:23.622Z,27.12
2023-03-06T15:38:20.705Z,27.13
2023-03-06T15:39:21.128Z,27.13
2023-03-06T15:40:21.137Z,27.15
2023-03-06T15:41:20.697Z,27.15
2023-03-06T15:42:20.691Z,27.15
2023-03-06T15:43:20.667Z,27.15
2023-03-06T15:44:21.140Z,27.15
2023-03-06T15:45:20.654Z,27.15
2023-03-06T15:46:20.665Z,27.12
2023-03-06T15:47:20.632Z,27.11
2023-03-06T15:48:27.129Z,27.09
2023-03-06T15:49:21.133Z,27.12
2023-03-06T15:50:20.606Z,27.11
2023-03-06T15:51:21.169Z,27.11
2023-03-06T15:52:20.627Z,27.09
2023-03-06T15:53:21.135Z,27.09
2023-03-06T15:54:20.577Z,27.08
2023-03-06T15:55:20.564Z,27.05
2023-03-06T15:56:20.553Z,27.06
2023-03-06T15:57:20.549Z,27.06
2023-03-06T15:58:20.591Z,27.03
2023-03-06T15:59:21.133Z,27.03
2023-03-06T16:00:27.291Z,27.05
2023-03-06T16:01:20.525Z,27.02
2023-03-06T16:02:20.578Z,27.02
2023-03-06T16:03:23.140Z,27.01
2023-03-06T16:04:20.625Z,26.99
2023-03-06T16:05:20.704Z,26.99
2023-03-06T16:06:20.465Z,27.01
2023-03-06T16:07:20.455Z,27.01
2023-03-06T16:08:23.138Z,26.97
2023-03-06T16:09:23.139Z,26.98
2023-03-06T16:10:20.651Z,26.98
2023-03-06T16:11:24.579Z,26.99
2023-03-06T16:12:41.421Z,26.97
2023-03-06T16:13:21.139Z,26.97
2023-03-06T16:14:20.388Z,26.97
2023-03-06T16:15:22.145Z,26.95
2023-03-06T16:16:20.653Z,26.98
2023-03-06T16:17:20.611Z,26.95
2023-03-06T16:18:23.179Z,26.95
2023-03-06T16:19:26.340Z,26.92
2023-03-06T16:20:23.686Z,26.94
2023-03-06T16:21:20.605Z,26.92
2023-03-06T16:22:20.564Z,26.90
2023-03-06T16:23:20.562Z,26.91
2023-03-06T16:24:21.148Z,26.91
2023-03-06T16:25:20.538Z,26.92
2023-03-06T16:26:20.645Z,26.91
2023-03-06T16:27:20.518Z,26.91
2023-03-06T16:28:20.514Z,26.90
2023-03-06T16:29:20.501Z,26.88
2023-03-06T16:30:20.488Z,26.88
2023-03-06T16:31:20.487Z,26.88
2023-03-06T16:32:20.516Z,26.87
2023-03-06T16:33:20.468Z,26.88
2023-03-06T16:34:20.493Z,26.91
2023-03-06T16:35:20.485Z,26.90
2023-03-06T16:36:20.436Z,26.87
2023-03-06T16:37:20.434Z,26.87
2023-03-06T16:38:20.421Z,26.85
2023-03-06T16:39:20.407Z,26.85
2023-03-06T16:40:20.397Z,26.87
2023-03-06T16:41:20.394Z,26.85
2023-03-06T16:42:20.380Z,26.87
2023-03-06T16:43:20.370Z,26.85
2023-03-06T16:44:20.414Z,26.84
2023-03-06T16:45:20.374Z,26.84
2023-03-06T16:46:20.416Z,26.84
2023-03-06T16:47:23.144Z,26.82
2023-03-06T16:48:20.333Z,26.81
2023-03-06T16:49:20.374Z,26.82
2023-03-06T16:50:20.344Z,26.80
2023-03-06T16:51:20.311Z,26.82
2023-03-06T16:52:20.293Z,26.81
2023-03-06T16:53:20.341Z,26.81
2023-03-06T16:54:20.270Z,26.81
2023-03-06T16:55:20.265Z,26.81
2023-03-06T16:56:20.259Z,26.81
2023-03-06T16:57:20.260Z,26.78
2023-03-06T16:58:20.264Z,26.80
2023-03-06T16:59:20.309Z,26.78
2023-03-06T17:00:20.219Z,26.78
2023-03-06T17:01:20.279Z,26.78
2023-03-06T17:02:20.245Z,26.78
2023-03-06T17:03:20.226Z,26.80
2023-03-06T17:04:20.184Z,26.77
2023-03-06T17:05:20.198Z,26.77
2023-03-06T17:06:20.190Z,26.77
2023-03-06T17:07:21.160Z,26.78
2023-03-06T17:08:20.149Z,26.75
2023-03-06T17:09:20.207Z,26.75
2023-03-06T17:10:34.684Z,26.75
2023-03-06T17:11:20.652Z,26.74
2023-03-06T17:12:20.655Z,26.71
2023-03-06T17:13:20.103Z,26.75
2023-03-06T17:14:20.125Z,26.74
2023-03-06T17:15:20.091Z,26.74
2023-03-06T17:16:20.128Z,26.74
2023-03-06T17:17:20.073Z,26.73
2023-03-06T17:18:20.066Z,26.73
2023-03-06T17:19:20.171Z,26.73
2023-03-06T17:20:20.037Z,26.75
2023-03-06T17:21:20.032Z,26.73
2023-03-06T17:22:20.049Z,26.73
2023-03-06T17:23:20.017Z,26.73
2023-03-06T17:24:20.026Z,26.71
2023-03-06T17:25:20.003Z,26.73
2023-03-06T17:26:20.670Z,26.71
2023-03-06T17:27:19.980Z,26.68
2023-03-06T17:28:19.970Z,26.68
2023-03-06T17:29:19.964Z,26.68
2023-03-06T17:30:19.949Z,26.71
2023-03-06T17:31:20.029Z,26.67
2023-03-06T17:32:20.215Z,26.67
2023-03-06T17:33:19.920Z,26.68
2023-03-06T17:34:19.932Z,26.67
2023-03-06T17:35:19.956Z,26.68
2023-03-06T17:36:20.007Z,26.70
2023-03-06T17:37:19.923Z,26.65
2023-03-06T17:38:20.020Z,26.65
2023-03-06T17:39:19.870Z,26.65
2023-03-06T17:40:19.855Z,26.65
2023-03-06T17:41:19.894Z,26.67
2023-03-06T17:42:19.861Z,26.65
2023-03-06T17:43:19.829Z,26.64
2023-03-06T17:44:19.863Z,26.64
2023-03-06T17:45:19.813Z,26.65
2023-03-06T17:46:19.844Z,26.65
2023-03-06T17:47:19.821Z,26.65
2023-03-06T17:48:20.670Z,26.65
2023-03-06T17:49:20.673Z,26.64
2023-03-06T17:50:19.765Z,26.67
2023-03-06T17:51:19.763Z,26.65
2023-03-06T17:52:19.752Z,26.65
2023-03-06T17:53:19.741Z,26.67
2023-03-06T17:54:19.774Z,26.61
2023-03-06T17:55:19.728Z,26.61
2023-03-06T17:56:19.719Z,26.61
2023-03-06T17:57:19.708Z,26.60
2023-03-06T17:58:34.731Z,26.63
2023-03-06T17:59:20.683Z,26.63
2023-03-06T18:00:19.677Z,26.61
2023-03-06T18:01:19.706Z,26.61
2023-03-06T18:02:19.653Z,26.60
2023-03-06T18:03:19.647Z,26.61
2023-03-06T18:04:19.646Z,26.61
2023-03-06T18:05:19.634Z,26.60
2023-03-06T18:06:19.624Z,26.61
2023-03-06T18:07:19.617Z,26.60
2023-03-06T18:08:19.601Z,26.60
2023-03-06T18:09:19.608Z,26.60
2023-03-06T18:10:19.606Z,26.60
2023-03-06T18:11:19.572Z,26.58
2023-03-06T18:12:19.563Z,26.57
2023-03-06T18:13:19.560Z,26.58
2023-03-06T18:14:19.696Z,26.60
2023-03-06T18:15:19.537Z,26.57
2023-03-06T18:16:19.596Z,26.56
2023-03-06T18:17:19.610Z,26.58
2023-03-06T18:18:19.515Z,26.57
2023-03-06T18:19:19.501Z,26.58
2023-03-06T18:20:19.493Z,26.57
2023-03-06T18:21:19.482Z,26.61
2023-03-06T18:22:19.512Z,26.58
2023-03-06T18:23:20.180Z,26.58
2023-03-06T18:24:19.455Z,26.56
2023-03-06T18:25:19.445Z,26.60
2023-03-06T18:26:19.472Z,26.56
2023-03-06T18:27:19.436Z,26.57
2023-03-06T18:28:19.442Z,26.56
2023-03-06T18:29:19.413Z,26.57
2023-03-06T18:30:19.409Z,26.56
2023-03-06T18:31:19.434Z,26.53
2023-03-06T18:32:20.230Z,26.53
2023-03-06T18:33:19.424Z,26.53
2023-03-06T18:34:19.376Z,26.54
2023-03-06T18:35:19.395Z,26.53
2023-03-06T18:36:20.190Z,26.58
2023-03-06T18:37:19.347Z,26.54
2023-03-06T18:38:19.364Z,26.53
2023-03-06T18:39:19.333Z,26.56
2023-03-06T18:40:19.327Z,26.53
2023-03-06T18:41:19.301Z,26.53
2023-03-06T18:42:19.325Z,26.51
2023-03-06T18:43:19.283Z,26.51
2023-03-06T18:44:19.712Z,26.48
2023-03-06T18:45:22.197Z,26.54
2023-03-06T18:46:19.261Z,26.50
2023-03-06T18:47:22.199Z,26.50
2023-03-06T18:48:19.272Z,26.51
2023-03-06T18:49:19.236Z,26.53
2023-03-06T18:50:19.220Z,26.50
2023-03-06T18:51:19.214Z,26.53
2023-03-06T18:52:19.205Z,26.51
2023-03-06T18:53:19.221Z,26.51
2023-03-06T18:54:19.208Z,26.53
2023-03-06T18:55:19.695Z,26.51
2023-03-06T18:56:19.169Z,26.51
2023-03-06T18:57:19.168Z,26.51
2023-03-06T18:58:19.175Z,26.51
2023-03-06T18:59:19.147Z,26.50
2023-03-06T19:00:19.697Z,26.51
2023-03-06T19:01:19.221Z,26.53
2023-03-06T19:02:19.113Z,26.51
2023-03-06T19:03:19.102Z,26.50
2023-03-06T19:04:19.246Z,26.51
2023-03-06T19:05:21.702Z,26.48
2023-03-06T19:06:19.090Z,26.46
2023-03-06T19:07:19.717Z,26.51
2023-03-06T19:08:19.061Z,26.50
2023-03-06T19:09:19.212Z,26.48
2023-03-06T19:10:19.045Z,26.46
2023-03-06T19:11:19.038Z,26.48
2023-03-06T19:12:19.029Z,26.48
2023-03-06T19:13:19.021Z,26.47
2023-03-06T19:14:19.035Z,26.50
2023-03-06T19:15:19.001Z,26.50
2023-03-06T19:16:19.026Z,26.48
2023-03-06T19:17:19.214Z,26.48
2023-03-06T19:18:18.988Z,26.47
2023-03-06T19:19:18.967Z,26.48
2023-03-06T19:20:18.959Z,26.50
2023-03-06T19:21:18.977Z,26.48
2023-03-06T19:22:19.713Z,26.47
2023-03-06T19:23:18.931Z,26.47
2023-03-06T19:24:18.930Z,26.47
2023-03-06T19:25:18.910Z,26.47
2023-03-06T19:26:18.954Z,26.46
2023-03-06T19:27:18.890Z,26.46
2023-03-06T19:28:18.902Z,26.48
2023-03-06T19:29:18.880Z,26.47
2023-03-06T19:30:18.891Z,26.46
2023-03-06T19:31:19.667Z,26.47
2023-03-06T19:32:18.996Z,26.44
2023-03-06T19:33:18.845Z,26.44
2023-03-06T19:34:19.727Z,26.44
2023-03-06T19:35:33.810Z,26.44
2023-03-06T19:36:18.825Z,26.46
2023-03-06T19:37:18.805Z,26.50
2023-03-06T19:38:18.794Z,26.44
2023-03-06T19:39:19.724Z,26.46
2023-03-06T19:40:18.779Z,26.44
2023-03-06T19:41:18.774Z,26.46
2023-03-06T19:42:18.757Z,26.44
2023-03-06T19:43:18.753Z,26.46
2023-03-06T19:44:18.747Z,26.43
2023-03-06T19:45:18.733Z,26.46
2023-03-06T19:46:18.782Z,26.44
2023-03-06T19:47:18.716Z,26.43
2023-03-06T19:48:18.997Z,26.43
2023-03-06T19:49:18.697Z,26.44
2023-03-06T19:50:18.690Z,26.46
2023-03-06T19:51:18.679Z,26.40
2023-03-06T19:52:18.667Z,26.40
2023-03-06T19:53:18.660Z,26.43
2023-03-06T19:54:18.658Z,26.42
2023-03-06T19:55:18.646Z,26.42
2023-03-06T19:56:21.265Z,26.44
2023-03-06T19:57:18.627Z,26.43
2023-03-06T19:58:18.615Z,26.43
2023-03-06T19:59:18.619Z,26.43
2023-03-06T20:00:18.605Z,26.42
2023-03-06T20:01:18.642Z,26.44
2023-03-06T20:02:25.258Z,26.43
2023-03-06T20:03:18.576Z,26.44
2023-03-06T20:04:18.615Z,26.47
2023-03-06T20:05:21.239Z,26.47
2023-03-06T20:06:18.565Z,26.47
2023-03-06T20:07:18.542Z,26.46
2023-03-06T20:08:18.533Z,26.46
2023-03-06T20:09:18.518Z,26.43
2023-03-06T20:10:19.234Z,26.44
2023-03-06T20:11:21.236Z,26.42
2023-03-06T20:12:18.506Z,26.42
2023-03-06T20:13:18.478Z,26.42
2023-03-06T20:14:18.742Z,26.44
2023-03-06T20:15:19.229Z,26.40
2023-03-06T20:16:18.457Z,26.43
2023-03-06T20:17:18.445Z,26.43
2023-03-06T20:18:18.502Z,26.40
2023-03-06T20:19:18.423Z,26.40
2023-03-06T20:20:18.408Z,26.43
2023-03-06T20:21:18.408Z,26.40
2023-03-06T20:22:18.389Z,26.40
2023-03-06T20:23:19.230Z,26.40
2023-03-06T20:24:18.372Z,26.42
2023-03-06T20:25:18.383Z,26.42
2023-03-06T20:26:19.234Z,26.42
2023-03-06T20:27:18.345Z,26.42
2023-03-06T20:28:18.333Z,26.40
2023-03-06T20:29:18.331Z,26.43
2023-03-06T20:30:18.318Z,26.42
2023-03-06T20:31:18.370Z,26.42
2023-03-06T20:32:18.359Z,26.42
2023-03-06T20:33:18.302Z,26.40
2023-03-06T20:34:18.316Z,26.40
2023-03-06T20:35:18.768Z,26.43
2023-03-06T20:36:18.266Z,26.39
2023-03-06T20:37:18.248Z,26.42
2023-03-06T20:38:18.254Z,26.42
2023-03-06T20:39:18.235Z,26.40
2023-03-06T20:40:18.316Z,26.43
2023-03-06T20:41:18.213Z,26.40
2023-03-06T20:42:18.735Z,26.40
2023-03-06T20:43:18.203Z,26.39
2023-03-06T20:44:18.192Z,26.40
2023-03-06T20:45:18.181Z,26.37
2023-03-06T20:46:18.204Z,26.39
2023-03-06T20:47:18.164Z,26.42
2023-03-06T20:48:18.159Z,26.37
2023-03-06T20:49:27.167Z,26.40
2023-03-06T20:50:18.151Z,26.39
2023-03-06T20:51:18.133Z,26.42
2023-03-06T20:52:18.117Z,26.40
2023-03-06T20:53:18.107Z,26.40
2023-03-06T20:54:18.170Z,26.39
2023-03-06T20:55:18.092Z,26.39
2023-03-06T20:56:18.096Z,26.39
2023-03-06T20:57:18.081Z,26.39
2023-03-06T20:58:18.065Z,26.36
2023-03-06T20:59:18.054Z,26.37
2023-03-06T21:00:18.050Z,26.36
2023-03-06T21:01:18.106Z,26.37
2023-03-06T21:02:18.027Z,26.37
2023-03-06T21:03:18.022Z,26.37
2023-03-06T21:04:18.013Z,26.40
2023-03-06T21:05:18.058Z,26.40
2023-03-06T21:06:18.745Z,26.37
2023-03-06T21:07:17.982Z,26.39
2023-03-06T21:08:17.979Z,26.40
2023-03-06T21:09:17.982Z,26.40
2023-03-06T21:10:17.955Z,26.40
2023-03-06T21:11:17.946Z,26.42
2023-03-06T21:12:17.944Z,26.39
2023-03-06T21:13:17.929Z,26.39
2023-03-06T21:14:17.943Z,26.40
2023-03-06T21:15:17.910Z,26.37
2023-03-06T21:16:18.025Z,26.36
2023-03-06T21:17:17.902Z,26.39
2023-03-06T21:18:17.895Z,26.39
2023-03-06T21:19:17.878Z,26.40
2023-03-06T21:20:17.876Z,26.39
2023-03-06T21:21:17.903Z,26.35
2023-03-06T21:22:17.855Z,26.35
2023-03-06T21:23:17.841Z,26.37
2023-03-06T21:24:19.710Z,26.39
2023-03-06T21:25:17.833Z,26.36
2023-03-06T21:26:17.814Z,26.39
2023-03-06T21:27:17.810Z,26.40
2023-03-06T21:28:17.800Z,26.37
2023-03-06T21:29:18.828Z,26.40
2023-03-06T21:30:17.793Z,26.40
2023-03-06T21:31:17.878Z,26.40
2023-03-06T21:32:17.816Z,26.40
2023-03-06T21:33:17.752Z,26.39
2023-03-06T21:34:17.773Z,26.37
2023-03-06T21:35:17.732Z,26.39
2023-03-06T21:36:17.739Z,26.36
2023-03-06T21:37:17.745Z,26.36
2023-03-06T21:38:17.709Z,26.39
2023-03-06T21:39:18.297Z,26.37
2023-03-06T21:40:17.694Z,26.37
2023-03-06T21:41:17.682Z,26.39
2023-03-06T21:42:17.675Z,26.39
2023-03-06T21:43:18.269Z,26.37
2023-03-06T21:44:17.668Z,26.39
2023-03-06T21:45:17.646Z,26.37
2023-03-06T21:46:17.678Z,26.37
2023-03-06T21:47:17.634Z,26.37
2023-03-06T21:48:17.631Z,26.35
2023-03-06T21:49:17.613Z,26.37
2023-03-06T21:50:17.602Z,26.36
2023-03-06T21:51:17.608Z,26.37
2023-03-06T21:52:17.584Z,26.37
2023-03-06T21:53:17.605Z,26.37
2023-03-06T21:54:17.566Z,26.36
2023-03-06T21:55:17.557Z,26.39
2023-03-06T21:56:17.794Z,26.39
2023-03-06T21:57:17.541Z,26.37
2023-03-06T21:58:17.531Z,26.36
2023-03-06T21:59:17.519Z,26.36
2023-03-06T22:00:17.509Z,26.36
2023-03-06T22:01:17.555Z,26.37
2023-03-06T22:02:17.499Z,26.36
2023-03-06T22:03:17.482Z,26.37
2023-03-06T22:04:17.506Z,26.36
2023-03-06T22:05:17.481Z,26.39
2023-03-06T22:06:17.506Z,26.36
2023-03-06T22:07:17.449Z,26.35
2023-03-06T22:08:17.437Z,26.33
2023-03-06T22:09:17.454Z,26.36
2023-03-06T22:10:17.427Z,26.35
2023-03-06T22:11:24.309Z,26.35
2023-03-06T22:12:17.407Z,26.33
2023-03-06T22:13:17.394Z,26.35
2023-03-06T22:14:17.387Z,26.33
2023-03-06T22:15:17.379Z,26.33
2023-03-06T22:16:17.498Z,26.33
2023-03-06T22:17:17.362Z,26.33
2023-03-06T22:18:17.349Z,26.36
2023-03-06T22:19:17.341Z,26.35
2023-03-06T22:20:20.277Z,26.33
2023-03-06T22:21:17.323Z,26.35
2023-03-06T22:22:17.317Z,26.33
2023-03-06T22:23:17.318Z,26.36
2023-03-06T22:24:17.301Z,26.35
2023-03-06T22:25:17.316Z,26.35
2023-03-06T22:26:17.780Z,26.32
2023-03-06T22:27:17.272Z,26.33
2023-03-06T22:28:17.262Z,26.35
2023-03-06T22:29:17.261Z,26.36
2023-03-06T22:30:17.248Z,26.35
2023-03-06T22:31:17.284Z,26.35
2023-03-06T22:32:17.398Z,26.33
2023-03-06T22:33:17.213Z,26.33
2023-03-06T22:34:17.199Z,26.35
2023-03-06T22:35:17.195Z,26.36
2023-03-06T22:36:17.178Z,26.35
2023-03-06T22:37:17.178Z,26.36
2023-03-06T22:38:17.168Z,26.36
2023-03-06T22:39:17.155Z,26.35
2023-03-06T22:40:17.157Z,26.35
2023-03-06T22:41:17.190Z,26.33
2023-03-06T22:42:17.131Z,26.33
2023-03-06T22:43:17.123Z,26.35
2023-03-06T22:44:17.116Z,26.32
2023-03-06T22:45:17.098Z,26.30
2023-03-06T22:46:17.197Z,26.32
2023-03-06T22:47:17.108Z,26.35
2023-03-06T22:48:17.071Z,26.33
2023-03-06T22:49:17.111Z,26.33
2023-03-06T22:50:17.061Z,26.35
2023-03-06T22:51:17.053Z,26.33
2023-03-06T22:52:17.034Z,26.30
2023-03-06T22:53:17.027Z,26.32
2023-03-06T22:54:17.015Z,26.32
2023-03-06T22:55:17.008Z,26.32
2023-03-06T22:56:17.008Z,26.33
2023-03-06T22:57:17.811Z,26.35
2023-03-06T22:58:17.289Z,26.33
2023-03-06T22:59:16.975Z,26.36
2023-03-06T23:00:16.979Z,26.33
2023-03-06T23:01:17.092Z,26.35
2023-03-06T23:02:16.956Z,26.33
2023-03-06T23:03:16.942Z,26.35
2023-03-06T23:04:16.963Z,26.35
2023-03-06T23:05:16.937Z,26.35
2023-03-06T23:06:16.917Z,26.33
2023-03-06T23:07:16.942Z,26.35
2023-03-06T23:08:16.896Z,26.35
2023-03-06T23:09:16.909Z,26.36
2023-03-06T23:10:16.903Z,26.33
2023-03-06T23:11:16.912Z,26.33
2023-03-06T23:12:16.898Z,26.33
2023-03-06T23:13:17.334Z,26.33
2023-03-06T23:14:17.866Z,26.33
2023-03-06T23:15:16.866Z,26.33
2023-03-06T23:16:16.824Z,26.33
2023-03-06T23:17:16.813Z,26.30
2023-03-06T23:18:16.810Z,26.30
2023-03-06T23:19:16.799Z,26.29
2023-03-06T23:20:17.298Z,26.29
2023-03-06T23:21:16.787Z,26.29
2023-03-06T23:22:16.806Z,26.30
2023-03-06T23:23:16.783Z,26.33
2023-03-06T23:24:16.752Z,26.30
2023-03-06T23:25:16.744Z,26.27
2023-03-06T23:26:16.743Z,26.29
2023-03-06T23:27:16.731Z,26.30
2023-03-06T23:28:16.747Z,26.29
2023-03-06T23:29:16.745Z,26.30
2023-03-06T23:30:16.713Z,26.29
2023-03-06T23:31:16.775Z,26.27
2023-03-06T23:32:16.790Z,26.29
2023-03-06T23:33:16.669Z,26.27
2023-03-06T23:34:16.664Z,26.30
2023-03-06T23:35:16.679Z,26.30
2023-03-06T23:36:17.305Z,26.30
2023-03-06T23:37:17.344Z,26.29
2023-03-06T23:38:16.637Z,26.30
2023-03-06T23:39:16.619Z,26.27
2023-03-06T23:40:16.613Z,26.29
2023-03-06T23:41:16.611Z,26.32
2023-03-06T23:42:16.601Z,26.29
2023-03-06T23:43:24.336Z,26.29
2023-03-06T23:44:16.831Z,26.30
2023-03-06T23:45:16.855Z,26.30
2023-03-06T23:46:16.865Z,26.30
2023-03-06T23:47:17.316Z,26.29
2023-03-06T23:48:16.789Z,26.30
2023-03-06T23:49:16.785Z,26.30
2023-03-06T23:50:16.773Z,26.29
2023-03-06T23:51:16.775Z,26.27
2023-03-06T23:52:16.752Z,26.29
2023-03-06T23:53:16.819Z,26.27
2023-03-06T23:54:17.320Z,26.27
2023-03-06T23:55:16.724Z,26.29
2023-03-06T23:56:17.320Z,26.29
2023-03-06T23:57:17.323Z,26.30